Time;durP1;ratioP1;P1;durP2;ratioP2;P2;SDS_P1;SDS_P2;PMS_P1;PMS_P2;Temp;Humidity;BMP_temperature;BMP_pressure;BME280_temperature;BME280_humidity;BME280_pressure;Samples;Min_cycle;Max_cycle;Signal;HPM_P1;HPM_P2
2021/01/22 00:00:12;;;;;;;1.85;0.80;;;;;;;;;;5012633;28;20049;-73
2021/01/22 00:02:38;;;;;;;1.70;0.57;;;;;;;;;;5011904;28;20512;-74
2021/01/22 00:05:04;;;;;;;1.35;0.55;;;;;;;;;;4979702;28;20117;-73
2021/01/22 00:07:29;;;;;;;2.13;0.77;;;;;;;;;;4995957;28;20792;-74
2021/01/22 00:09:54;;;;;;;2.05;1.05;;;;;;;;;;5012449;28;20476;-74
2021/01/22 00:12:20;;;;;;;2.53;0.70;;;;;;;;;;5012091;28;20369;-74
2021/01/22 00:14:48;;;;;;;2.55;0.80;;;;;;;;;;5012072;28;20391;-74
2021/01/22 00:17:14;;;;;;;1.90;0.80;;;;;;;;;;4995526;28;20030;-74
2021/01/22 00:19:40;;;;;;;2.15;0.85;;;;;;;;;;5012070;28;20440;-74
2021/01/22 00:22:05;;;;;;;2.10;0.80;;;;;;;;;;4964550;28;20125;-74
2021/01/22 00:24:31;;;;;;;2.33;1.00;;;;;;;;;;4995634;28;20046;-74
2021/01/22 00:26:56;;;;;;;2.90;1.00;;;;;;;;;;5009996;28;20401;-74
2021/01/22 00:29:22;;;;;;;2.53;0.80;;;;;;;;;;4991845;28;20711;-74
2021/01/22 00:31:47;;;;;;;1.58;0.70;;;;;;;;;;4975642;28;20400;-74
2021/01/22 00:34:13;;;;;;;1.52;0.63;;;;;;;;;;4975977;28;20073;-74
2021/01/22 00:36:38;;;;;;;2.13;0.82;;;;;;;;;;4992132;28;20041;-74
2021/01/22 00:39:04;;;;;;;2.83;1.08;;;;;;;;;;4992125;28;20053;-75
2021/01/22 00:41:30;;;;;;;1.73;0.60;;;;;;;;;;4976110;28;20030;-75
2021/01/22 00:43:55;;;;;;;2.40;0.70;;;;;;;;;;4984246;28;20040;-75
2021/01/22 00:46:20;;;;;;;2.17;0.68;;;;;;;;;;4994851;28;20040;-75
2021/01/22 00:48:46;;;;;;;1.13;0.50;;;;;;;;;;4996419;28;20399;-76
2021/01/22 00:51:11;;;;;;;1.85;0.70;;;;;;;;;;4994860;28;20026;-76
2021/01/22 00:53:39;;;;;;;1.65;0.40;;;;;;;;;;5000731;28;20025;-77
2021/01/22 00:56:07;;;;;;;1.63;0.77;;;;;;;;;;5031135;28;20404;-77
2021/01/22 00:58:32;;;;;;;2.25;0.60;;;;;;;;;;5014271;28;20052;-76
2021/01/22 01:00:58;;;;;;;1.65;0.82;;;;;;;;;;5014170;28;20399;-76
2021/01/22 01:03:24;;;;;;;1.67;0.52;;;;;;;;;;4993836;28;20096;-76
2021/01/22 01:05:49;;;;;;;3.03;1.00;;;;;;;;;;4993889;28;20034;-76
2021/01/22 01:08:15;;;;;;;1.23;0.40;;;;;;;;;;4976089;28;20034;-76
2021/01/22 01:10:40;;;;;;;1.92;0.60;;;;;;;;;;4977541;28;20026;-76
2021/01/22 01:13:06;;;;;;;2.38;0.60;;;;;;;;;;4993889;28;20400;-76
2021/01/22 01:15:32;;;;;;;2.47;0.65;;;;;;;;;;5011813;28;20400;-76
2021/01/22 01:17:57;;;;;;;2.28;0.88;;;;;;;;;;4991793;28;20031;-76
2021/01/22 01:20:23;;;;;;;1.50;0.68;;;;;;;;;;4958808;28;20045;-76
2021/01/22 01:22:48;;;;;;;1.05;0.43;;;;;;;;;;4991619;28;20034;-76
2021/01/22 01:25:14;;;;;;;1.77;0.60;;;;;;;;;;5011044;28;20113;-76
2021/01/22 01:27:39;;;;;;;1.67;0.50;;;;;;;;;;4982448;28;20404;-76
2021/01/22 01:30:06;;;;;;;1.20;0.50;;;;;;;;;;4974623;28;20035;-76
2021/01/22 01:32:31;;;;;;;1.35;0.43;;;;;;;;;;4975123;28;20504;-75
2021/01/22 01:34:56;;;;;;;1.92;0.82;;;;;;;;;;4991125;28;20045;-75
2021/01/22 01:37:22;;;;;;;1.30;0.47;;;;;;;;;;4974912;28;20439;-75
2021/01/22 01:39:47;;;;;;;1.20;0.60;;;;;;;;;;4991275;28;20104;-76
2021/01/22 01:42:13;;;;;;;1.25;0.35;;;;;;;;;;4975118;28;20424;-76
2021/01/22 01:44:38;;;;;;;1.67;0.52;;;;;;;;;;4992794;28;20442;-75
2021/01/22 01:47:03;;;;;;;1.90;0.43;;;;;;;;;;4997263;28;20411;-76
2021/01/22 01:49:29;;;;;;;1.70;0.45;;;;;;;;;;5014056;28;20737;-75
2021/01/22 01:51:55;;;;;;;1.45;0.40;;;;;;;;;;5013435;28;20045;-75
2021/01/22 01:54:20;;;;;;;1.38;0.50;;;;;;;;;;5005027;28;20034;-75
2021/01/22 01:56:46;;;;;;;1.45;0.38;;;;;;;;;;4997628;28;20407;-74
2021/01/22 01:59:12;;;;;;;1.25;0.50;;;;;;;;;;5013529;28;20119;-75
2021/01/22 02:01:38;;;;;;;1.92;0.40;;;;;;;;;;5010725;28;20125;-75
2021/01/22 02:04:03;;;;;;;1.02;0.40;;;;;;;;;;4994090;28;20088;-75
2021/01/22 02:06:29;;;;;;;2.08;0.40;;;;;;;;;;5013011;28;20075;-74
2021/01/22 02:08:55;;;;;;;1.25;0.30;;;;;;;;;;4994388;28;20041;-74
2021/01/22 02:11:20;;;;;;;0.77;0.22;;;;;;;;;;5010383;28;20057;-74
2021/01/22 02:13:46;;;;;;;0.88;0.30;;;;;;;;;;4993658;28;20369;-73
2021/01/22 02:16:11;;;;;;;1.27;0.30;;;;;;;;;;5013674;28;20419;-73
2021/01/22 02:18:37;;;;;;;1.75;0.30;;;;;;;;;;5019342;28;20435;-73
2021/01/22 02:21:21;;;;;;;1.27;0.30;;;;;;;;;;4997580;28;20396;-73
2021/01/22 02:23:47;;;;;;;1.05;0.30;;;;;;;;;;5014394;28;20038;-73
2021/01/22 02:26:28;;;;;;;0.70;0.30;;;;;;;;;;4998186;28;20076;-73
2021/01/22 02:28:56;;;;;;;0.73;0.30;;;;;;;;;;5014497;28;20121;-73
2021/01/22 02:31:21;;;;;;;1.33;0.35;;;;;;;;;;4997989;28;20076;-73
2021/01/22 02:33:47;;;;;;;1.00;0.30;;;;;;;;;;5015449;28;20070;-73
2021/01/22 02:36:13;;;;;;;1.50;0.38;;;;;;;;;;4994103;28;20112;-73
2021/01/22 02:38:39;;;;;;;1.25;0.30;;;;;;;;;;4994470;28;20073;-73
2021/01/22 02:41:04;;;;;;;1.55;0.20;;;;;;;;;;4994403;28;20026;-73
2021/01/22 02:43:30;;;;;;;1.00;0.30;;;;;;;;;;4998028;28;20033;-73
2021/01/22 02:45:55;;;;;;;1.05;0.32;;;;;;;;;;4997621;28;20041;-73
2021/01/22 02:48:21;;;;;;;0.45;0.20;;;;;;;;;;4997267;28;20383;-73
2021/01/22 02:50:47;;;;;;;0.65;0.20;;;;;;;;;;4997480;28;20388;-73
2021/01/22 02:53:12;;;;;;;1.45;0.20;;;;;;;;;;4997538;28;20120;-73
2021/01/22 02:55:38;;;;;;;0.88;0.30;;;;;;;;;;4997425;28;20373;-73
2021/01/22 02:58:23;;;;;;;1.13;0.22;;;;;;;;;;4997045;28;20392;-73
2021/01/22 03:00:49;;;;;;;0.93;0.28;;;;;;;;;;4982227;28;20087;-73
2021/01/22 03:03:53;;;;;;;0.50;0.20;;;;;;;;;;4998070;28;20038;-72
2021/01/22 03:06:25;;;;;;;0.82;0.20;;;;;;;;;;4998156;28;20036;-73
2021/01/22 03:08:52;;;;;;;1.43;0.27;;;;;;;;;;4996935;28;20030;-72
2021/01/22 03:11:17;;;;;;;1.05;0.20;;;;;;;;;;5012441;28;20071;-73
2021/01/22 03:13:42;;;;;;;0.88;0.20;;;;;;;;;;4977921;28;20377;-72
2021/01/22 03:16:08;;;;;;;0.80;0.20;;;;;;;;;;4994190;28;20439;-73
2021/01/22 03:18:33;;;;;;;0.88;0.20;;;;;;;;;;4981382;28;20504;-72
2021/01/22 03:20:59;;;;;;;0.47;0.10;;;;;;;;;;5014323;28;20395;-72
2021/01/22 03:23:24;;;;;;;0.50;0.20;;;;;;;;;;4980977;28;20038;-72
2021/01/22 03:25:50;;;;;;;0.80;0.20;;;;;;;;;;4996814;28;20392;-73
2021/01/22 03:28:15;;;;;;;0.98;0.20;;;;;;;;;;4978286;28;20120;-72
2021/01/22 03:30:41;;;;;;;0.95;0.20;;;;;;;;;;5016404;28;20034;-72
2021/01/22 03:33:06;;;;;;;0.82;0.20;;;;;;;;;;5013099;28;20435;-72
2021/01/22 03:35:32;;;;;;;0.38;0.10;;;;;;;;;;4996858;28;20430;-72
2021/01/22 03:37:57;;;;;;;0.88;0.13;;;;;;;;;;5014504;28;20042;-72
2021/01/22 03:40:23;;;;;;;0.90;0.10;;;;;;;;;;4996353;28;20484;-73
2021/01/22 03:42:49;;;;;;;0.55;0.20;;;;;;;;;;4980456;28;20048;-72
2021/01/22 03:45:15;;;;;;;0.50;0.13;;;;;;;;;;4997725;28;20042;-72
2021/01/22 03:47:40;;;;;;;0.77;0.17;;;;;;;;;;4996742;28;20383;-72
2021/01/22 03:50:07;;;;;;;0.90;0.20;;;;;;;;;;4996519;28;20038;-73
2021/01/22 03:52:32;;;;;;;0.38;0.10;;;;;;;;;;4993397;28;20402;-72
2021/01/22 03:54:57;;;;;;;1.23;0.10;;;;;;;;;;4976552;28;20089;-72
2021/01/22 03:57:23;;;;;;;0.35;0.10;;;;;;;;;;5009254;28;20373;-72
2021/01/22 03:59:48;;;;;;;0.80;0.20;;;;;;;;;;5012055;28;20463;-72
2021/01/22 04:02:14;;;;;;;1.25;0.30;;;;;;;;;;5013378;28;20041;-72
2021/01/22 04:04:39;;;;;;;0.47;0.10;;;;;;;;;;4996293;28;20061;-72
2021/01/22 04:07:05;;;;;;;0.43;0.20;;;;;;;;;;4996264;28;20041;-72
2021/01/22 04:09:30;;;;;;;0.93;0.10;;;;;;;;;;4995995;28;20408;-73
2021/01/22 04:11:56;;;;;;;0.73;0.10;;;;;;;;;;4996947;28;20104;-72
2021/01/22 04:14:22;;;;;;;0.90;0.20;;;;;;;;;;4996026;28;20472;-72
2021/01/22 04:16:47;;;;;;;0.60;0.10;;;;;;;;;;5012592;28;20092;-73
2021/01/22 04:19:13;;;;;;;0.40;0.10;;;;;;;;;;4995518;28;20038;-72
2021/01/22 04:21:38;;;;;;;0.45;0.20;;;;;;;;;;5012030;28;20396;-73
2021/01/22 04:24:04;;;;;;;0.50;0.15;;;;;;;;;;4995258;28;20038;-72
2021/01/22 04:26:29;;;;;;;0.85;0.20;;;;;;;;;;4976335;28;20487;-72
2021/01/22 04:28:57;;;;;;;0.50;0.10;;;;;;;;;;4969071;28;20030;-72
2021/01/22 04:31:22;;;;;;;0.20;0.10;;;;;;;;;;5012012;28;20034;-72
2021/01/22 04:33:48;;;;;;;0.70;0.10;;;;;;;;;;4979385;28;20034;-72
2021/01/22 04:36:13;;;;;;;0.57;0.10;;;;;;;;;;4995323;28;20087;-72
2021/01/22 04:38:39;;;;;;;0.52;0.10;;;;;;;;;;5012342;28;20396;-72
2021/01/22 04:41:04;;;;;;;1.00;0.10;;;;;;;;;;4991503;28;20762;-72
2021/01/22 04:43:30;;;;;;;0.65;0.10;;;;;;;;;;4995789;28;20469;-72
2021/01/22 04:45:55;;;;;;;0.93;0.20;;;;;;;;;;5011721;28;20116;-72
2021/01/22 04:48:21;;;;;;;0.35;0.20;;;;;;;;;;4978898;28;20377;-72
2021/01/22 04:50:46;;;;;;;1.02;0.10;;;;;;;;;;4978930;28;20112;-72
2021/01/22 04:53:12;;;;;;;0.17;0.10;;;;;;;;;;4995105;28;20452;-72
2021/01/22 04:55:41;;;;;;;0.82;0.15;;;;;;;;;;4995311;28;20411;-72
2021/01/22 04:58:06;;;;;;;1.08;0.30;;;;;;;;;;4995105;28;20128;-72
2021/01/22 05:00:32;;;;;;;0.20;0.10;;;;;;;;;;4995432;28;20154;-72
2021/01/22 05:02:57;;;;;;;1.08;0.22;;;;;;;;;;4978576;28;20049;-73
2021/01/22 05:05:23;;;;;;;0.10;0.10;;;;;;;;;;4994678;28;20045;-72
2021/01/22 05:07:48;;;;;;;0.57;0.25;;;;;;;;;;5010755;28;20045;-72
2021/01/22 05:10:13;;;;;;;0.55;0.13;;;;;;;;;;5013449;28;20038;-72
2021/01/22 05:12:40;;;;;;;0.35;0.20;;;;;;;;;;5011611;28;20037;-72
2021/01/22 05:15:24;;;;;;;0.45;0.17;;;;;;;;;;5011265;28;20037;-72
2021/01/22 05:18:04;;;;;;;1.10;0.25;;;;;;;;;;5011830;28;20424;-72
2021/01/22 05:20:34;;;;;;;0.20;0.10;;;;;;;;;;5010808;28;20029;-72
2021/01/22 05:23:01;;;;;;;0.85;0.20;;;;;;;;;;4994905;28;20042;-72
2021/01/22 05:25:26;;;;;;;0.30;0.10;;;;;;;;;;4995157;28;20037;-72
2021/01/22 05:27:53;;;;;;;0.38;0.10;;;;;;;;;;5012104;28;20034;-72
2021/01/22 05:30:19;;;;;;;0.95;0.30;;;;;;;;;;4999807;28;20033;-72
2021/01/22 05:32:45;;;;;;;0.68;0.10;;;;;;;;;;4994778;28;20752;-72
2021/01/22 05:35:10;;;;;;;0.73;0.10;;;;;;;;;;5010816;28;20048;-72
2021/01/22 05:37:49;;;;;;;1.23;0.20;;;;;;;;;;4994122;28;20034;-72
2021/01/22 05:40:14;;;;;;;1.50;0.52;;;;;;;;;;4994538;28;20034;-72
2021/01/22 05:42:50;;;;;;;1.52;0.20;;;;;;;;;;5010786;28;20045;-72
2021/01/22 05:45:16;;;;;;;0.28;0.10;;;;;;;;;;5011158;28;20038;-72
2021/01/22 05:47:42;;;;;;;0.73;0.20;;;;;;;;;;4978486;28;20034;-72
2021/01/22 05:50:08;;;;;;;0.20;0.00;;;;;;;;;;4993993;28;20048;-72
2021/01/22 05:52:33;;;;;;;0.82;0.20;;;;;;;;;;4990972;28;20042;-72
2021/01/22 05:54:59;;;;;;;0.50;0.10;;;;;;;;;;5007406;28;20034;-72
2021/01/22 05:57:24;;;;;;;0.52;0.20;;;;;;;;;;5011451;28;20438;-72
2021/01/22 06:00:09;;;;;;;1.02;0.20;;;;;;;;;;4994451;28;20029;-72
2021/01/22 06:02:35;;;;;;;0.10;0.10;;;;;;;;;;5010328;28;20077;-72
2021/01/22 06:05:11;;;;;;;0.68;0.30;;;;;;;;;;4993848;28;20492;-72
2021/01/22 06:07:41;;;;;;;0.88;0.40;;;;;;;;;;5010756;28;20041;-72
2021/01/22 06:10:19;;;;;;;0.90;0.10;;;;;;;;;;4994240;28;20373;-72
2021/01/22 06:12:54;;;;;;;0.57;0.20;;;;;;;;;;4996476;28;20055;-72
2021/01/22 06:15:20;;;;;;;0.85;0.20;;;;;;;;;;5010554;28;20431;-72
2021/01/22 06:17:51;;;;;;;0.60;0.15;;;;;;;;;;4993210;28;20038;-72
2021/01/22 06:20:21;;;;;;;0.77;0.17;;;;;;;;;;5010002;28;20034;-72
2021/01/22 06:23:09;;;;;;;1.58;0.22;;;;;;;;;;4994693;28;20116;-72
2021/01/22 06:25:34;;;;;;;1.15;0.20;;;;;;;;;;5026119;28;20033;-72
2021/01/22 06:28:07;;;;;;;0.50;0.10;;;;;;;;;;5013125;28;20047;-73
2021/01/22 06:30:35;;;;;;;;;;;;;;;;;;5010224;28;20492;-72
2021/01/22 06:33:01;;;;;;;1.27;0.30;;;;;;;;;;5030023;28;19917;-73
2021/01/22 06:35:28;;;;;;;1.83;0.20;;;;;;;;;;5013237;28;20061;-73
2021/01/22 06:37:55;;;;;;;0.57;0.10;;;;;;;;;;5030247;28;20100;-73
2021/01/22 06:40:21;;;;;;;0.82;0.20;;;;;;;;;;4980528;28;20128;-73
2021/01/22 06:42:46;;;;;;;0.82;0.20;;;;;;;;;;4997135;28;20437;-73
2021/01/22 06:45:12;;;;;;;0.68;0.20;;;;;;;;;;4978921;28;20065;-73
2021/01/22 06:47:37;;;;;;;1.05;0.40;;;;;;;;;;4993777;28;20040;-73
2021/01/22 06:50:03;;;;;;;0.80;0.30;;;;;;;;;;5008856;28;20034;-72
2021/01/22 06:52:29;;;;;;;0.85;0.30;;;;;;;;;;4994860;28;20033;-72
2021/01/22 06:54:57;;;;;;;0.50;0.20;;;;;;;;;;4977678;28;20172;-73
2021/01/22 06:57:23;;;;;;;1.08;0.30;;;;;;;;;;5009983;28;20033;-73
2021/01/22 06:59:49;;;;;;;0.70;0.20;;;;;;;;;;4993525;28;20038;-73
2021/01/22 07:02:32;;;;;;;0.95;0.30;;;;;;;;;;5008537;28;20537;-72
2021/01/22 07:04:58;;;;;;;1.50;0.30;;;;;;;;;;5014345;28;20411;-71
2021/01/22 07:07:46;;;;;;;0.90;0.20;;;;;;;;;;5013301;28;20030;-71
2021/01/22 07:10:11;;;;;;;1.48;0.40;;;;;;;;;;5012107;28;20148;-71
2021/01/22 07:12:36;;;;;;;0.93;0.20;;;;;;;;;;4996465;28;20507;-72
2021/01/22 07:15:25;;;;;;;0.73;0.20;;;;;;;;;;5012039;28;20436;-72
2021/01/22 07:18:00;;;;;;;0.47;0.20;;;;;;;;;;5010174;28;20463;-72
2021/01/22 07:20:28;;;;;;;1.20;0.30;;;;;;;;;;5011913;28;20050;-72
2021/01/22 07:22:53;;;;;;;1.85;0.22;;;;;;;;;;4994959;28;20130;-72
2021/01/22 07:25:28;;;;;;;1.58;0.28;;;;;;;;;;5011068;28;20141;-72
2021/01/22 07:27:54;;;;;;;1.30;0.20;;;;;;;;;;5012183;28;20065;-72
2021/01/22 07:30:22;;;;;;;2.55;0.40;;;;;;;;;;5017137;28;20034;-72
2021/01/22 07:32:49;;;;;;;0.93;0.20;;;;;;;;;;5011955;28;20400;-72
2021/01/22 07:35:19;;;;;;;1.42;0.30;;;;;;;;;;4997111;28;20056;-72
2021/01/22 07:37:45;;;;;;;1.70;0.30;;;;;;;;;;4996770;28;20030;-72
2021/01/22 07:40:10;;;;;;;1.98;0.65;;;;;;;;;;4996310;28;20045;-72
2021/01/22 07:42:36;;;;;;;2.05;0.30;;;;;;;;;;4980388;28;20504;-72
2021/01/22 07:45:17;;;;;;;1.92;0.70;;;;;;;;;;4996584;28;20034;-72
2021/01/22 07:47:47;;;;;;;0.82;0.35;;;;;;;;;;5012332;28;20026;-72
2021/01/22 07:50:22;;;;;;;2.70;0.35;;;;;;;;;;4980234;28;20431;-72
2021/01/22 07:52:48;;;;;;;3.13;0.40;;;;;;;;;;5012744;28;20026;-72
2021/01/22 07:55:23;;;;;;;4.03;0.30;;;;;;;;;;4996542;28;20084;-72
2021/01/22 07:58:01;;;;;;;2.10;0.60;;;;;;;;;;5012573;28;20033;-72
2021/01/22 08:00:27;;;;;;;3.58;0.82;;;;;;;;;;4996081;28;20061;-72
2021/01/22 08:02:57;;;;;;;2.58;0.52;;;;;;;;;;4994856;28;20428;-74
2021/01/22 08:05:31;;;;;;;4.05;0.52;;;;;;;;;;5011770;28;20049;-73
2021/01/22 08:07:57;;;;;;;4.53;1.08;;;;;;;;;;4994883;28;20038;-74
2021/01/22 08:10:26;;;;;;;4.22;0.40;;;;;;;;;;4993930;28;20435;-74
2021/01/22 08:12:58;;;;;;;3.15;0.50;;;;;;;;;;4994029;28;20021;-74
2021/01/22 08:15:24;;;;;;;;;;;;;;;;;;4994021;28;20052;-74
2021/01/22 08:17:49;;;;;;;3.38;0.63;;;;;;;;;;5009261;28;20427;-74
2021/01/22 08:20:16;;;;;;;4.47;0.80;;;;;;;;;;5011368;28;20030;-74
2021/01/22 08:22:42;;;;;;;3.13;0.50;;;;;;;;;;4993848;28;20071;-74
2021/01/22 08:25:08;;;;;;;7.50;0.80;;;;;;;;;;4993583;28;20046;-74
2021/01/22 08:27:34;;;;;;;3.28;0.68;;;;;;;;;;5010189;28;20026;-74
2021/01/22 08:30:00;;;;;;;7.47;1.30;;;;;;;;;;4995425;28;20065;-74
2021/01/22 08:32:26;;;;;;;6.10;0.82;;;;;;;;;;4993676;28;20120;-74
2021/01/22 08:34:51;;;;;;;5.57;1.00;;;;;;;;;;4993184;28;20465;-74
2021/01/22 08:37:16;;;;;;;4.72;1.10;;;;;;;;;;4994858;28;20510;-74
2021/01/22 08:40:00;;;;;;;5.70;0.90;;;;;;;;;;4994784;28;20049;-74
2021/01/22 08:42:26;;;;;;;4.32;0.60;;;;;;;;;;4985283;28;20038;-74
2021/01/22 08:44:55;;;;;;;5.70;0.80;;;;;;;;;;4992375;28;20038;-74
2021/01/22 08:47:21;;;;;;;2.40;0.60;;;;;;;;;;5009402;28;20045;-74
2021/01/22 08:49:56;;;;;;;6.05;1.25;;;;;;;;;;5009672;28;20034;-74
2021/01/22 08:52:21;;;;;;;5.00;1.08;;;;;;;;;;5009133;28;20038;-74
2021/01/22 08:54:50;;;;;;;9.20;1.88;;;;;;;;;;4991696;28;20489;-74
2021/01/22 08:57:16;;;;;;;8.07;1.05;;;;;;;;;;5009644;28;20041;-74
2021/01/22 08:59:57;;;;;;;5.07;0.80;;;;;;;;;;5011217;28;20045;-74
2021/01/22 09:02:42;;;;;;;5.60;0.93;;;;;;;;;;5011913;28;20034;-75
2021/01/22 09:05:16;;;;;;;17.58;2.17;;;;;;;;;;4992356;28;20439;-74
2021/01/22 09:07:42;;;;;;;10.65;5.15;;;;;;;;;;5013916;28;20058;-74
2021/01/22 09:10:22;;;;;;;11.50;6.65;;;;;;;;;;5010135;28;20065;-74
2021/01/22 09:12:47;;;;;;;9.45;5.50;;;;;;;;;;5009089;28;20029;-74
2021/01/22 09:15:16;;;;;;;9.25;5.55;;;;;;;;;;5010859;28;20061;-74
2021/01/22 09:17:45;;;;;;;10.02;4.97;;;;;;;;;;5009245;28;20488;-74
2021/01/22 09:20:19;;;;;;;11.35;4.25;;;;;;;;;;5006420;28;20073;-74
2021/01/22 09:22:54;;;;;;;9.00;4.55;;;;;;;;;;5000113;28;20018;-74
2021/01/22 09:25:23;;;;;;;14.80;4.70;;;;;;;;;;5013371;28;20037;-73
2021/01/22 09:27:48;;;;;;;8.75;4.60;;;;;;;;;;4996819;28;20037;-72
2021/01/22 09:30:21;;;;;;;14.43;4.20;;;;;;;;;;5013984;28;20476;-72
2021/01/22 09:32:51;;;;;;;10.18;4.22;;;;;;;;;;4995116;28;20099;-72
2021/01/22 09:35:17;;;;;;;8.23;3.90;;;;;;;;;;4994481;28;20134;-72
2021/01/22 09:37:42;;;;;;;13.10;5.28;;;;;;;;;;4994222;28;20044;-72
2021/01/22 09:40:08;;;;;;;11.55;4.82;;;;;;;;;;5010095;28;20056;-71
2021/01/22 09:42:34;;;;;;;14.77;4.18;;;;;;;;;;4977804;28;20037;-72
2021/01/22 09:45:00;;;;;;;16.63;4.53;;;;;;;;;;4994775;28;20034;-72
2021/01/22 09:47:25;;;;;;;9.20;4.07;;;;;;;;;;5011092;28;20053;-72
2021/01/22 09:49:51;;;;;;;8.77;3.85;;;;;;;;;;5010296;28;20050;-72
2021/01/22 09:52:16;;;;;;;8.20;3.28;;;;;;;;;;5010347;28;20052;-72
2021/01/22 09:54:42;;;;;;;8.70;3.65;;;;;;;;;;4994321;28;20038;-72
2021/01/22 09:57:07;;;;;;;10.88;4.05;;;;;;;;;;4993986;28;20391;-72
2021/01/22 09:59:33;;;;;;;10.13;3.58;;;;;;;;;;5009940;28;20289;-72
2021/01/22 10:01:58;;;;;;;7.88;3.33;;;;;;;;;;5010486;28;20392;-72
2021/01/22 10:04:24;;;;;;;27.10;4.85;;;;;;;;;;5012699;28;20049;-72
2021/01/22 10:06:49;;;;;;;15.13;3.80;;;;;;;;;;5005685;28;20033;-72
2021/01/22 10:09:15;;;;;;;8.15;3.28;;;;;;;;;;5009312;28;20569;-72
2021/01/22 10:11:40;;;;;;;13.35;3.03;;;;;;;;;;5010233;28;20034;-72
2021/01/22 10:14:06;;;;;;;6.28;2.67;;;;;;;;;;4993259;28;20120;-72
2021/01/22 10:16:32;;;;;;;11.00;2.50;;;;;;;;;;4993966;28;20034;-72
2021/01/22 10:18:57;;;;;;;7.28;2.92;;;;;;;;;;4993967;28;20115;-72
2021/01/22 10:21:23;;;;;;;6.57;3.13;;;;;;;;;;4993089;28;20040;-72
2021/01/22 10:23:49;;;;;;;13.23;3.08;;;;;;;;;;4999118;28;20038;-72
2021/01/22 10:26:15;;;;;;;13.43;3.28;;;;;;;;;;4993389;28;20030;-71
2021/01/22 10:28:41;;;;;;;10.60;2.83;;;;;;;;;;4993749;28;20045;-72
2021/01/22 10:31:06;;;;;;;9.60;2.80;;;;;;;;;;5010290;28;20388;-72
2021/01/22 10:33:32;;;;;;;14.23;2.65;;;;;;;;;;4994114;28;20511;-72
2021/01/22 10:35:57;;;;;;;8.38;2.70;;;;;;;;;;5010281;28;20030;-71
2021/01/22 10:38:23;;;;;;;10.57;2.47;;;;;;;;;;5011599;28;20045;-71
2021/01/22 10:40:49;;;;;;;7.68;2.40;;;;;;;;;;5014200;28;20049;-71
2021/01/22 10:43:14;;;;;;;9.95;3.53;;;;;;;;;;5027636;28;20407;-71
2021/01/22 10:45:39;;;;;;;4.82;1.70;;;;;;;;;;5015127;28;20373;-71
2021/01/22 10:48:05;;;;;;;7.85;2.25;;;;;;;;;;5013624;28;20042;-71
2021/01/22 10:50:31;;;;;;;8.18;2.28;;;;;;;;;;5026890;28;20484;-71
2021/01/22 10:52:56;;;;;;;7.22;2.28;;;;;;;;;;5014931;28;20049;-72
2021/01/22 10:55:22;;;;;;;10.63;2.28;;;;;;;;;;5003619;28;20092;-72
2021/01/22 10:57:47;;;;;;;7.38;1.83;;;;;;;;;;4993895;28;20035;-71
2021/01/22 11:00:13;;;;;;;5.32;2.35;;;;;;;;;;4993911;28;20030;-71
2021/01/22 11:02:39;;;;;;;7.88;2.35;;;;;;;;;;5009944;28;20057;-72
2021/01/22 11:05:05;;;;;;;6.15;1.90;;;;;;;;;;4996972;28;20114;-72
2021/01/22 11:07:30;;;;;;;6.85;2.20;;;;;;;;;;4997002;28;20033;-72
2021/01/22 11:09:56;;;;;;;10.90;2.13;;;;;;;;;;5014880;28;20029;-71
2021/01/22 11:12:21;;;;;;;7.40;2.35;;;;;;;;;;4993579;28;20041;-72
2021/01/22 11:14:47;;;;;;;7.03;2.10;;;;;;;;;;4995169;28;20035;-72
2021/01/22 11:17:13;;;;;;;7.30;1.73;;;;;;;;;;4993759;28;20435;-72
2021/01/22 11:19:38;;;;;;;4.68;2.25;;;;;;;;;;4996851;28;20076;-71
2021/01/22 11:22:04;;;;;;;4.22;1.67;;;;;;;;;;5012208;28;20068;-72
2021/01/22 11:24:29;;;;;;;7.78;2.70;;;;;;;;;;5023501;28;20399;-71
2021/01/22 11:26:55;;;;;;;5.97;1.52;;;;;;;;;;5020849;28;20396;-71
2021/01/22 11:29:20;;;;;;;4.78;1.92;;;;;;;;;;5013332;28;20052;-71
2021/01/22 11:31:45;;;;;;;5.43;2.10;;;;;;;;;;5012575;28;20511;-71
2021/01/22 11:34:11;;;;;;;6.25;2.28;;;;;;;;;;5014032;28;20050;-71
2021/01/22 11:36:36;;;;;;;8.57;1.98;;;;;;;;;;5013881;28;20038;-71
2021/01/22 11:39:02;;;;;;;8.55;2.63;;;;;;;;;;5012605;28;20033;-72
2021/01/22 11:41:27;;;;;;;4.80;1.98;;;;;;;;;;5012755;28;20037;-72
2021/01/22 11:43:53;;;;;;;14.57;3.53;;;;;;;;;;5014448;28;20455;-72
2021/01/22 11:46:18;;;;;;;11.15;2.42;;;;;;;;;;5011102;28;20100;-72
2021/01/22 11:48:43;;;;;;;6.25;1.42;;;;;;;;;;4994239;28;20152;-72
2021/01/22 11:51:09;;;;;;;5.80;2.00;;;;;;;;;;5011649;28;20113;-74
2021/01/22 11:53:34;;;;;;;5.80;1.77;;;;;;;;;;5013088;28;20033;-71
2021/01/22 11:56:00;;;;;;;4.90;2.00;;;;;;;;;;5012771;28;20100;-71
2021/01/22 11:58:25;;;;;;;8.38;2.45;;;;;;;;;;5012829;28;20034;-71
2021/01/22 12:00:50;;;;;;;8.88;1.90;;;;;;;;;;5013204;28;20404;-71
2021/01/22 12:03:16;;;;;;;5.78;1.90;;;;;;;;;;5010102;28;20041;-71
2021/01/22 12:05:41;;;;;;;5.20;1.70;;;;;;;;;;5010562;28;20049;-71
2021/01/22 12:08:07;;;;;;;6.60;2.05;;;;;;;;;;5012547;28;20145;-71
2021/01/22 12:10:32;;;;;;;7.32;2.10;;;;;;;;;;5013031;28;20026;-71
2021/01/22 12:12:57;;;;;;;5.07;1.60;;;;;;;;;;5013207;28;20026;-71
2021/01/22 12:15:23;;;;;;;3.50;1.48;;;;;;;;;;5012286;28;20037;-71
2021/01/22 12:17:48;;;;;;;3.05;1.30;;;;;;;;;;5008291;28;20116;-71
2021/01/22 12:20:14;;;;;;;4.75;1.70;;;;;;;;;;5012028;28;20042;-71
2021/01/22 12:22:39;;;;;;;4.35;1.63;;;;;;;;;;5009485;28;20080;-71
2021/01/22 12:25:05;;;;;;;4.85;1.70;;;;;;;;;;5013154;28;20033;-71
2021/01/22 12:27:31;;;;;;;4.43;1.63;;;;;;;;;;4994919;28;20041;-71
2021/01/22 12:29:57;;;;;;;7.97;1.98;;;;;;;;;;4999421;28;20109;-71
2021/01/22 12:32:23;;;;;;;4.25;1.90;;;;;;;;;;5013401;28;20083;-71
2021/01/22 12:34:49;;;;;;;3.47;1.60;;;;;;;;;;4978818;28;20050;-71
2021/01/22 12:37:14;;;;;;;5.40;2.63;;;;;;;;;;5011470;28;20088;-71
2021/01/22 12:39:40;;;;;;;3.97;1.63;;;;;;;;;;5013889;28;20033;-71
2021/01/22 12:42:05;;;;;;;7.03;1.90;;;;;;;;;;5011025;28;20037;-71
2021/01/22 12:44:30;;;;;;;6.30;1.70;;;;;;;;;;5011701;28;20450;-71
2021/01/22 12:46:56;;;;;;;5.57;1.45;;;;;;;;;;5010094;28;20100;-71
2021/01/22 12:49:21;;;;;;;3.50;1.45;;;;;;;;;;5009936;28;20029;-71
2021/01/22 12:51:47;;;;;;;4.93;1.67;;;;;;;;;;5010399;28;20042;-71
2021/01/22 12:54:12;;;;;;;6.65;1.73;;;;;;;;;;5010498;28;20132;-71
2021/01/22 12:56:38;;;;;;;3.15;1.38;;;;;;;;;;5012036;28;20125;-71
2021/01/22 12:59:03;;;;;;;3.38;1.40;;;;;;;;;;5011391;28;20120;-71
2021/01/22 13:01:28;;;;;;;3.90;1.15;;;;;;;;;;4993221;28;20046;-71
2021/01/22 13:03:54;;;;;;;3.20;1.25;;;;;;;;;;5010867;28;20476;-71
2021/01/22 13:06:19;;;;;;;5.10;1.42;;;;;;;;;;5012244;28;20040;-71
2021/01/22 13:08:44;;;;;;;5.20;1.52;;;;;;;;;;5012460;28;20037;-71
2021/01/22 13:11:10;;;;;;;4.78;1.30;;;;;;;;;;5013341;28;20034;-71
2021/01/22 13:13:37;;;;;;;4.13;1.70;;;;;;;;;;5014463;28;20483;-72
2021/01/22 13:16:03;;;;;;;2.65;1.02;;;;;;;;;;4999185;28;20034;-72
2021/01/22 13:18:28;;;;;;;6.70;1.63;;;;;;;;;;5011927;28;20273;-72
2021/01/22 13:20:54;;;;;;;9.02;1.30;;;;;;;;;;5005426;28;20034;-73
2021/01/22 13:23:19;;;;;;;4.25;1.30;;;;;;;;;;4989109;28;20046;-73
2021/01/22 13:25:45;;;;;;;5.68;1.52;;;;;;;;;;4993355;28;20042;-72
2021/01/22 13:28:10;;;;;;;7.60;1.90;;;;;;;;;;5002996;28;20453;-71
2021/01/22 13:30:36;;;;;;;6.60;2.50;;;;;;;;;;5014341;28;20045;-71
2021/01/22 13:33:01;;;;;;;5.55;2.05;;;;;;;;;;4992782;28;20396;-71
2021/01/22 13:35:26;;;;;;;6.68;2.15;;;;;;;;;;4993705;28;20042;-71
2021/01/22 13:37:52;;;;;;;3.85;1.90;;;;;;;;;;4991394;28;20034;-70
2021/01/22 13:40:17;;;;;;;8.50;2.00;;;;;;;;;;4991258;28;20045;-71
2021/01/22 13:42:44;;;;;;;7.38;2.03;;;;;;;;;;5000030;28;20198;-71
2021/01/22 13:45:10;;;;;;;6.85;1.67;;;;;;;;;;4998260;28;20029;-71
2021/01/22 13:47:35;;;;;;;4.82;1.52;;;;;;;;;;5011799;28;20041;-71
2021/01/22 13:50:01;;;;;;;3.88;1.40;;;;;;;;;;5010215;28;20044;-71
2021/01/22 13:52:28;;;;;;;6.35;1.98;;;;;;;;;;5010837;28;20038;-71
2021/01/22 13:54:53;;;;;;;4.35;1.52;;;;;;;;;;4994405;28;20120;-71
2021/01/22 13:57:19;;;;;;;10.10;2.08;;;;;;;;;;5010435;28;20040;-72
2021/01/22 13:59:45;;;;;;;14.27;2.47;;;;;;;;;;5009898;28;20551;-72
2021/01/22 14:02:10;;;;;;;10.85;2.22;;;;;;;;;;5011738;28;20046;-71
2021/01/22 14:04:36;;;;;;;15.38;2.30;;;;;;;;;;5011595;28;20044;-71
2021/01/22 14:07:01;;;;;;;17.42;3.17;;;;;;;;;;5010330;28;20037;-72
2021/01/22 14:09:27;;;;;;;5.38;1.52;;;;;;;;;;5010151;28;20188;-71
2021/01/22 14:11:52;;;;;;;6.47;1.80;;;;;;;;;;5014229;28;20108;-71
2021/01/22 14:14:17;;;;;;;9.05;1.95;;;;;;;;;;5031662;28;20045;-72
2021/01/22 14:16:43;;;;;;;5.30;1.77;;;;;;;;;;5025693;28;20048;-72
2021/01/22 14:19:08;;;;;;;6.82;1.98;;;;;;;;;;4996951;28;20037;-72
2021/01/22 14:21:34;;;;;;;6.95;1.50;;;;;;;;;;5015024;28;20492;-72
2021/01/22 14:23:59;;;;;;;4.88;1.40;;;;;;;;;;5015271;28;20091;-72
2021/01/22 14:26:24;;;;;;;3.47;1.30;;;;;;;;;;5015823;28;20046;-72
2021/01/22 14:28:50;;;;;;;6.55;1.77;;;;;;;;;;5019485;28;20112;-72
2021/01/22 14:31:16;;;;;;;3.92;1.33;;;;;;;;;;5033779;28;20372;-72
2021/01/22 14:33:41;;;;;;;4.97;1.70;;;;;;;;;;5016001;28;20037;-72
2021/01/22 14:36:07;;;;;;;4.55;1.98;;;;;;;;;;4997267;28;20387;-72
2021/01/22 14:38:32;;;;;;;7.18;1.70;;;;;;;;;;5013989;28;20044;-72
2021/01/22 14:40:57;;;;;;;5.07;1.30;;;;;;;;;;5013906;28;20109;-72